CST,Max TemperatureF,Mean TemperatureF,Min TemperatureF,Max Dew PointF,MeanDew PointF,Min DewpointF,Max Humidity, Mean Humidity, Min Humidity, Max Sea Level PressureIn, Mean Sea Level PressureIn, Min Sea Level PressureIn, Max VisibilityMiles, Mean VisibilityMiles, Min VisibilityMiles, Max Wind SpeedMPH, Mean Wind SpeedMPH, Max Gust SpeedMPH,PrecipitationIn, CloudCover, Events, WindDirDegrees
2013-12-1,47,37,27,29,28,26,92,71,49,30.18,30.10,29.97,10,9,7,10,4,14,0.00,3,,33
2013-12-2,45,38,30,36,32,27,92,79,65,29.96,29.78,29.66,8,6,4,15,7,20,0.01,6,Rain,117
2013-12-3,47,41,34,45,40,34,100,93,86,29.67,29.64,29.58,4,2,0,12,4,15,0.01,7,Fog-Rain,115
2013-12-4,53,39,24,52,42,18,100,91,81,29.88,29.60,29.47,10,4,0,28,10,41,0.04,8,Fog-Rain,185
2013-12-5,24,19,13,18,9,5,81,69,56,30.40,30.18,29.91,10,10,10,28,16,33,T,3,,290
2013-12-6,16,12,7,3,1,-2,73,63,53,30.70,30.54,30.40,10,10,10,20,11,23,0.00,2,,316
2013-12-7,16,9,1,2,-2,-6,79,63,46,30.82,30.72,30.63,10,10,10,13,6,17,0.00,0,,340
2013-12-8,21,17,12,19,15,2,92,75,58,30.57,30.16,30.02,10,4,0,16,8,24,0.08,8,Fog-Snow,98
2013-12-9,20,5,-11,16,-1,-11,92,78,63,30.34,30.24,30.03,10,9,3,23,10,26,T,1,Snow,271
2013-12-10,19,5,-9,10,5,-12,92,77,61,30.32,30.21,30.06,10,10,10,25,10,35,0.00,4,,249
2013-12-11,18,7,-5,14,2,-11,88,72,55,30.69,30.49,30.27,10,8,1,22,7,29,0.02,3,Snow,322
2013-12-12,23,9,-5,13,4,-10,92,77,62,30.60,30.41,30.24,10,10,6,14,4,16,0.00,1,,203
2013-12-13,28,17,6,25,17,5,92,80,68,30.21,30.10,30.05,10,7,3,16,6,22,0.00,4,,64
2013-12-14,26,21,15,22,18,9,88,81,73,30.16,30.09,30.05,10,8,2,20,12,24,T,8,Snow,345
2013-12-15,16,13,9,10,6,1,84,73,61,30.19,30.14,30.10,10,6,2,18,8,24,0.03,7,Snow,348
2013-12-16,23,18,13,20,13,8,91,83,74,30.15,30.11,30.03,10,8,2,12,6,14,T,8,Snow,112
2013-12-17,37,25,12,26,18,12,96,74,52,30.24,30.15,30.10,10,9,6,31,10,39,0.00,2,,276
2013-12-18,42,27,11,30,19,9,92,72,52,30.22,29.98,29.82,10,10,8,21,4,29,0.00,0,,172
2013-12-19,36,29,21,32,29,21,100,91,82,29.91,29.83,29.77,10,6,2,15,6,20,0.03,5,Rain,52
2013-12-20,33,29,25,32,26,23,100,96,92,29.91,29.86,29.79,10,5,2,18,8,22,0.03,8,Snow,352
2013-12-21,29,27,24,27,24,21,92,87,81,29.92,29.83,29.72,10,5,1,17,8,22,0.02,8,Snow,3
2013-12-22,29,20,10,27,21,5,100,87,73,30.32,29.90,29.71,10,5,0,21,13,25,0.37,7,Fog-Snow,341
2013-12-23,11,2,-7,5,-7,-14,83,76,69,30.62,30.51,30.28,10,10,9,22,11,26,0.00,0,,284
2013-12-24,17,1,-16,11,-7,-18,91,77,62,30.63,30.52,30.32,10,10,10,15,6,18,0.00,4,,154
2013-12-25,29,23,17,23,19,11,92,81,69,30.29,30.23,30.18,10,7,2,17,9,23,T,7,Snow,251
2013-12-26,37,23,8,28,17,9,100,85,69,30.29,30.24,30.16,10,9,5,10,2,14,0.00,5,,195
2013-12-27,41,24,7,29,17,6,100,80,60,30.33,30.23,30.13,10,5,0,13,3,15,0.00,0,Fog,197
2013-12-28,45,30,17,32,24,16,100,79,57,30.12,30.00,29.84,10,5,0,16,6,21,0.00,0,Fog,195
2013-12-29,36,18,-1,30,9,-9,92,80,68,30.38,30.14,29.84,10,9,2,26,17,37,T,6,Snow,315
2013-12-30,10,2,-7,6,-1,-12,91,78,65,30.40,30.28,30.20,10,5,1,10,3,13,0.04,6,Snow,124
2013-12-31,11,3,-6,6,1,-8,100,87,73,30.41,30.34,30.29,10,10,8,15,6,18,0.00,5,,41